Terminal Aerodrome Forecast
Issued by NWS Sterling, VA

Current Version | Previous Version | Text Only | Print | Product List | Glossary Off
Versions: 1 2 3 4 5 6 7 8 9 10 11 12 13 14 15 16 17 18 19 20 21 22 23 24 25

978
FTUS41 KLWX 240752 AAA
TAFIAD
TAF AMD
KIAD 240752Z 2408/2512 21010G17KT P6SM -SHRA SCT035 OVC090
      TEMPO 2408/2409 VRB15G25KT 2SM +SHRA BKN025
     FM241000 25009KT P6SM -SHRA SCT025 OVC060
     FM241200 29010KT P6SM SCT025 BKN120
     FM250100 31006KT P6SM FEW080 SCT250=

USA.gov is the U.S. government's official web portal to all federal, state and local government web resources and services.